Time;durP1;ratioP1;P1;durP2;ratioP2;P2;SDS_P1;SDS_P2;PMS_P1;PMS_P2;Temp;Humidity;BMP_temperature;BMP_pressure;BME280_temperature;BME280_humidity;BME280_pressure;Samples;Min_cycle;Max_cycle;Signal;HPM_P1;HPM_P2
2022/01/18 00:00:55;;;;;;;11.10;7.97;;;;;;;;;;5032837;28;20406;-66
2022/01/18 00:03:21;;;;;;;9.67;6.53;;;;;;;;;;5033556;28;20453;-66
2022/01/18 00:05:49;;;;;;;8.80;6.27;;;;;;;;;;5036513;28;20513;-66
2022/01/18 00:08:16;;;;;;;10.20;7.37;;;;;;;;;;5036517;28;20486;-66
2022/01/18 00:10:43;;;;;;;9.80;6.80;;;;;;;;;;5036461;28;20413;-66
2022/01/18 00:13:24;;;;;;;12.37;7.77;;;;;;;;;;5036397;28;20879;-67
2022/01/18 00:16:11;;;;;;;9.50;6.90;;;;;;;;;;5036882;28;20564;-67
2022/01/18 00:18:38;;;;;;;9.47;7.13;;;;;;;;;;5036394;28;20863;-67
2022/01/18 00:23:34;;;;;;;9.67;7.70;;;;;;;;;;5036392;28;20446;-67
2022/01/18 00:26:00;;;;;;;9.87;7.30;;;;;;;;;;5036360;28;20415;-67
2022/01/18 00:28:28;;;;;;;8.93;6.83;;;;;;;;;;5036103;28;20502;-67
2022/01/18 00:34:05;;;;;;;10.23;6.73;;;;;;;;;;5036445;28;20390;-67
2022/01/18 00:39:04;;;;;;;9.10;6.90;;;;;;;;;;5035821;28;20752;-67
2022/01/18 00:41:30;;;;;;;9.37;7.57;;;;;;;;;;5036219;28;20903;-67
2022/01/18 00:43:56;;;;;;;9.37;6.43;;;;;;;;;;5035416;28;20454;-67
2022/01/18 00:46:23;;;;;;;12.20;8.40;;;;;;;;;;5035840;28;20394;-67
2022/01/18 00:48:52;;;;;;;9.77;7.03;;;;;;;;;;5035555;28;20406;-67
2022/01/18 00:51:18;;;;;;;14.30;8.77;;;;;;;;;;5035786;28;20411;-67
2022/01/18 00:53:45;;;;;;;8.13;6.60;;;;;;;;;;5035772;28;20434;-67
2022/01/18 00:58:42;;;;;;;11.73;8.33;;;;;;;;;;5035488;28;20457;-67
2022/01/18 01:01:09;;;;;;;12.07;8.40;;;;;;;;;;5035725;28;20418;-67
2022/01/18 01:03:35;;;;;;;12.93;8.53;;;;;;;;;;5035321;28;20450;-67
2022/01/18 01:06:01;;;;;;;9.83;7.70;;;;;;;;;;5035491;28;20399;-67
2022/01/18 01:08:28;;;;;;;15.30;8.80;;;;;;;;;;5035327;28;20399;-67
2022/01/18 01:10:54;;;;;;;10.80;7.90;;;;;;;;;;5035282;28;20394;-67
2022/01/18 01:13:20;;;;;;;11.87;8.30;;;;;;;;;;5035513;28;20402;-67
2022/01/18 01:16:09;;;;;;;11.23;8.27;;;;;;;;;;5034890;28;20872;-67
2022/01/18 01:45:27;;;;;;;12.00;9.03;;;;;;;;;;5034405;28;20470;-67
2022/01/18 01:47:54;;;;;;;14.70;9.80;;;;;;;;;;5034811;28;20402;-67
2022/01/18 01:50:22;;;;;;;14.30;8.87;;;;;;;;;;5034539;28;20902;-67
2022/01/18 01:52:50;;;;;;;14.60;10.03;;;;;;;;;;5034709;28;20465;-66
2022/01/18 01:55:18;;;;;;;12.50;8.47;;;;;;;;;;5034698;28;20433;-67
2022/01/18 01:57:44;;;;;;;15.40;9.40;;;;;;;;;;5034667;28;20407;-67
2022/01/18 02:00:12;;;;;;;10.27;7.30;;;;;;;;;;5034371;28;20489;-66
2022/01/18 02:02:38;;;;;;;15.97;9.40;;;;;;;;;;5034214;28;20442;-67
2022/01/18 02:05:06;;;;;;;11.47;9.10;;;;;;;;;;5034110;28;20887;-67
2022/01/18 02:07:32;;;;;;;14.73;9.90;;;;;;;;;;5034401;28;20518;-67
2022/01/18 02:09:58;;;;;;;11.80;8.90;;;;;;;;;;5034395;28;20398;-67
2022/01/18 02:12:24;;;;;;;14.70;9.53;;;;;;;;;;5034240;28;20493;-67
2022/01/18 02:14:58;;;;;;;14.10;10.23;;;;;;;;;;5033961;28;20919;-67
2022/01/18 02:23:10;;;;;;;14.70;9.90;;;;;;;;;;5032553;28;20771;-66
2022/01/18 02:25:36;;;;;;;13.63;9.03;;;;;;;;;;5034096;28;20504;-66
2022/01/18 02:28:02;;;;;;;16.47;9.77;;;;;;;;;;5033087;28;20757;-66
2022/01/18 02:30:28;;;;;;;13.93;8.70;;;;;;;;;;5033940;28;20754;-66
2022/01/18 02:32:56;;;;;;;11.93;10.20;;;;;;;;;;5034096;28;20516;-66
2022/01/18 02:35:22;;;;;;;16.47;10.70;;;;;;;;;;5033726;28;20461;-66
2022/01/18 02:37:54;;;;;;;15.90;9.90;;;;;;;;;;5033571;28;20383;-66
2022/01/18 02:40:20;;;;;;;14.40;9.90;;;;;;;;;;5033686;28;20393;-66
2022/01/18 02:42:56;;;;;;;17.60;9.90;;;;;;;;;;5030529;28;20403;-66
2022/01/18 02:45:22;;;;;;;20.93;10.30;;;;;;;;;;5023938;28;20559;-66
2022/01/18 02:47:50;;;;;;;12.40;8.80;;;;;;;;;;5033479;28;20889;-66
2022/01/18 02:50:16;;;;;;;15.43;9.30;;;;;;;;;;5033655;28;20406;-66
2022/01/18 02:52:43;;;;;;;13.53;10.80;;;;;;;;;;5033309;28;20398;-66
2022/01/18 02:55:09;;;;;;;13.43;9.60;;;;;;;;;;5033432;28;20430;-66
2022/01/18 02:57:43;;;;;;;15.40;11.03;;;;;;;;;;5033240;28;20887;-66
2022/01/18 03:00:27;;;;;;;13.30;10.13;;;;;;;;;;5033356;28;20438;-66
2022/01/18 03:03:16;;;;;;;14.80;10.27;;;;;;;;;;5032023;28;20402;-66
2022/01/18 03:05:43;;;;;;;16.50;10.50;;;;;;;;;;5033119;28;21007;-66
2022/01/18 03:08:10;;;;;;;16.87;10.67;;;;;;;;;;5033309;28;20397;-66
2022/01/18 03:10:37;;;;;;;13.70;10.40;;;;;;;;;;5033200;28;20403;-66
2022/01/18 03:13:04;;;;;;;15.93;10.53;;;;;;;;;;5033097;28;20395;-66
2022/01/18 03:15:30;;;;;;;17.23;11.63;;;;;;;;;;5033354;28;20445;-65
2022/01/18 03:17:56;;;;;;;15.53;12.07;;;;;;;;;;5033244;28;20395;-65
2022/01/18 03:20:23;;;;;;;12.83;9.93;;;;;;;;;;5033325;28;20403;-65
2022/01/18 03:22:50;;;;;;;13.90;10.10;;;;;;;;;;5033946;28;20403;-65
2022/01/18 03:25:40;;;;;;;15.27;10.90;;;;;;;;;;5033310;28;20527;-65
2022/01/18 03:28:08;;;;;;;15.43;9.90;;;;;;;;;;5033742;28;20379;-65
2022/01/18 03:30:38;;;;;;;16.50;10.77;;;;;;;;;;5033420;28;20418;-65
2022/01/18 03:33:05;;;;;;;13.80;10.43;;;;;;;;;;5033345;28;20414;-65
2022/01/18 03:35:32;;;;;;;14.57;11.43;;;;;;;;;;5033129;28;20430;-65
2022/01/18 03:37:58;;;;;;;16.00;11.98;;;;;;;;;;5032875;28;20443;-67
2022/01/18 03:40:25;;;;;;;17.70;11.83;;;;;;;;;;5036901;28;20403;-67
2022/01/18 03:42:54;;;;;;;16.50;11.10;;;;;;;;;;5036888;28;20399;-65
2022/01/18 03:45:23;;;;;;;18.07;11.90;;;;;;;;;;5036643;28;20465;-65
2022/01/18 03:47:49;;;;;;;16.07;11.37;;;;;;;;;;5037027;28;20402;-65
2022/01/18 03:50:16;;;;;;;16.20;11.70;;;;;;;;;;5036978;28;20474;-66
2022/01/18 03:52:42;;;;;;;15.73;11.00;;;;;;;;;;5036850;28;20402;-65
2022/01/18 03:55:09;;;;;;;16.00;10.33;;;;;;;;;;5036578;28;20962;-66
2022/01/18 03:57:35;;;;;;;18.70;11.53;;;;;;;;;;5036573;28;20399;-65
2022/01/18 04:00:01;;;;;;;16.80;11.80;;;;;;;;;;5036410;28;20438;-66
2022/01/18 04:02:27;;;;;;;14.77;10.73;;;;;;;;;;5036683;28;20757;-66
2022/01/18 04:04:54;;;;;;;18.47;11.90;;;;;;;;;;5036492;28;20508;-66
2022/01/18 04:07:20;;;;;;;16.03;12.00;;;;;;;;;;5036318;28;20402;-66
2022/01/18 04:09:46;;;;;;;15.47;11.60;;;;;;;;;;5036511;28;20483;-65
2022/01/18 04:12:12;;;;;;;19.83;12.90;;;;;;;;;;5036558;28;20407;-66
2022/01/18 04:14:38;;;;;;;23.90;12.77;;;;;;;;;;5028658;28;20481;-65
2022/01/18 04:17:12;;;;;;;17.80;12.23;;;;;;;;;;5024045;28;20400;-65
2022/01/18 04:27:47;;;;;;;18.47;12.80;;;;;;;;;;5036212;28;20409;-65
2022/01/18 04:30:13;;;;;;;17.80;11.60;;;;;;;;;;5036275;28;20505;-65
2022/01/18 04:32:39;;;;;;;19.40;13.53;;;;;;;;;;5036130;28;20398;-65
2022/01/18 04:35:05;;;;;;;18.90;11.80;;;;;;;;;;5035981;28;20501;-65
2022/01/18 04:37:31;;;;;;;20.03;13.23;;;;;;;;;;5035941;28;20406;-66
2022/01/18 04:39:58;;;;;;;18.30;12.83;;;;;;;;;;5035792;28;20452;-66
2022/01/18 04:50:29;;;;;;;18.03;11.57;;;;;;;;;;5034876;28;21004;-66
2022/01/18 04:52:55;;;;;;;18.33;12.30;;;;;;;;;;5029207;28;20908;-66
2022/01/18 04:55:21;;;;;;;19.37;12.17;;;;;;;;;;5024849;28;20549;-66
2022/01/18 04:57:53;;;;;;;22.07;13.70;;;;;;;;;;5035514;28;20410;-66
2022/01/18 05:00:23;;;;;;;19.47;12.40;;;;;;;;;;5034021;28;20911;-66
2022/01/18 05:02:49;;;;;;;20.03;12.77;;;;;;;;;;5035234;28;20501;-66
2022/01/18 05:05:24;;;;;;;20.07;12.43;;;;;;;;;;5035254;28;20971;-66
2022/01/18 05:07:52;;;;;;;20.73;11.57;;;;;;;;;;5035934;28;20386;-66
2022/01/18 05:10:20;;;;;;;23.57;14.90;;;;;;;;;;5035825;28;20485;-66
2022/01/18 05:12:49;;;;;;;19.07;12.60;;;;;;;;;;5035205;28;20411;-66
2022/01/18 05:15:38;;;;;;;20.83;13.30;;;;;;;;;;5035025;28;20430;-66
2022/01/18 05:21:06;;;;;;;24.60;13.90;;;;;;;;;;5035062;28;20824;-67
2022/01/18 05:23:26;;;;;;;22.27;13.90;;;;;;;;;;5034921;28;20759;-66
2022/01/18 05:25:52;;;;;;;22.23;13.83;;;;;;;;;;5034995;28;20423;-66
2022/01/18 05:28:18;;;;;;;21.43;13.70;;;;;;;;;;5034930;28;20410;-66
2022/01/18 05:30:44;;;;;;;19.97;13.57;;;;;;;;;;5030700;28;20422;-66
2022/01/18 05:33:11;;;;;;;21.03;12.23;;;;;;;;;;5033583;28;20415;-67
2022/01/18 05:35:37;;;;;;;20.40;12.53;;;;;;;;;;5034927;28;20414;-66
2022/01/18 05:38:04;;;;;;;21.13;12.80;;;;;;;;;;5034846;28;20438;-66
2022/01/18 05:40:31;;;;;;;19.87;11.50;;;;;;;;;;5034886;28;20410;-67
2022/01/18 05:42:57;;;;;;;20.20;13.20;;;;;;;;;;5035222;28;20417;-67
2022/01/18 05:45:23;;;;;;;18.80;10.70;;;;;;;;;;5034299;28;20963;-66
2022/01/18 05:47:49;;;;;;;18.03;11.53;;;;;;;;;;5034612;28;20876;-66
2022/01/18 05:50:15;;;;;;;23.60;14.07;;;;;;;;;;5034439;28;20399;-66
2022/01/18 05:52:42;;;;;;;21.23;13.37;;;;;;;;;;5034542;28;20402;-66
2022/01/18 05:55:08;;;;;;;17.47;12.33;;;;;;;;;;5034380;28;20431;-66
2022/01/18 05:57:35;;;;;;;21.30;12.87;;;;;;;;;;5034567;28;20403;-66
2022/01/18 06:00:04;;;;;;;21.47;12.57;;;;;;;;;;5034192;28;20403;-67
2022/01/18 06:07:41;;;;;;;21.50;12.50;;;;;;;;;;5034202;28;20374;-66
2022/01/18 06:10:08;;;;;;;17.63;11.43;;;;;;;;;;5033974;28;20948;-66
2022/01/18 06:12:34;;;;;;;16.70;12.53;;;;;;;;;;5033933;28;20406;-67
2022/01/18 06:15:00;;;;;;;23.97;12.47;;;;;;;;;;5034004;28;20426;-66
2022/01/18 06:17:27;;;;;;;22.20;12.77;;;;;;;;;;5033906;28;20453;-66
2022/01/18 06:19:53;;;;;;;19.70;12.43;;;;;;;;;;5033863;28;20962;-66
2022/01/18 06:22:19;;;;;;;21.87;13.77;;;;;;;;;;5033816;28;20779;-66
2022/01/18 06:24:46;;;;;;;28.50;13.70;;;;;;;;;;5033631;28;20457;-67
2022/01/18 06:27:12;;;;;;;23.93;13.20;;;;;;;;;;5034022;28;20400;-66
2022/01/18 06:29:38;;;;;;;22.30;13.13;;;;;;;;;;5033876;28;20394;-66
2022/01/18 06:32:05;;;;;;;23.77;15.53;;;;;;;;;;5033964;28;20398;-66
2022/01/18 06:34:31;;;;;;;23.63;14.13;;;;;;;;;;5033523;28;20431;-66
2022/01/18 06:36:57;;;;;;;24.50;14.33;;;;;;;;;;5033745;28;20430;-66
2022/01/18 06:39:23;;;;;;;24.10;15.37;;;;;;;;;;5033862;28;20425;-66
2022/01/18 06:41:49;;;;;;;23.70;13.33;;;;;;;;;;5033551;28;20399;-66
2022/01/18 06:44:15;;;;;;;22.03;12.27;;;;;;;;;;5031791;28;20463;-66
2022/01/18 06:46:41;;;;;;;18.57;13.00;;;;;;;;;;5033347;28;20891;-66
2022/01/18 06:49:07;;;;;;;21.80;13.80;;;;;;;;;;5032098;28;20403;-66
2022/01/18 06:51:34;;;;;;;23.60;13.43;;;;;;;;;;5033234;28;20403;-66
2022/01/18 06:54:00;;;;;;;22.70;13.57;;;;;;;;;;5033307;28;20485;-66
2022/01/18 06:56:26;;;;;;;17.67;12.67;;;;;;;;;;5033275;28;20425;-66
2022/01/18 06:58:53;;;;;;;18.83;12.90;;;;;;;;;;5033647;28;20460;-66
2022/01/18 07:01:20;;;;;;;19.20;12.30;;;;;;;;;;5033341;28;20403;-67
2022/01/18 07:03:48;;;;;;;17.70;12.00;;;;;;;;;;5033097;28;20446;-66
2022/01/18 07:06:14;;;;;;;20.43;13.27;;;;;;;;;;5033539;28;20412;-66
2022/01/18 07:08:40;;;;;;;21.13;12.83;;;;;;;;;;5033210;28;20399;-66
2022/01/18 07:11:07;;;;;;;22.43;14.07;;;;;;;;;;5033252;28;20402;-66
2022/01/18 07:13:33;;;;;;;21.77;13.87;;;;;;;;;;5032823;28;20399;-67
2022/01/18 07:15:59;;;;;;;22.40;13.17;;;;;;;;;;5033340;28;20415;-67
2022/01/18 07:18:25;;;;;;;19.07;12.70;;;;;;;;;;5033540;28;20407;-67
2022/01/18 07:20:52;;;;;;;24.80;14.17;;;;;;;;;;5033147;28;20402;-66
2022/01/18 07:23:18;;;;;;;23.77;13.63;;;;;;;;;;5033189;28;20826;-66
2022/01/18 07:25:46;;;;;;;20.27;13.23;;;;;;;;;;5033300;28;20462;-67
2022/01/18 07:28:18;;;;;;;18.77;13.70;;;;;;;;;;5033428;28;20399;-66
2022/01/18 07:30:44;;;;;;;22.00;13.47;;;;;;;;;;5032980;28;20408;-69
2022/01/18 07:33:13;;;;;;;23.87;14.87;;;;;;;;;;5032959;28;20497;-65
2022/01/18 07:35:40;;;;;;;24.07;14.63;;;;;;;;;;5032861;28;20456;-65
2022/01/18 07:38:07;;;;;;;28.10;14.73;;;;;;;;;;5032961;28;20437;-65
2022/01/18 07:40:33;;;;;;;21.13;13.80;;;;;;;;;;5033075;28;20903;-65
2022/01/18 07:43:01;;;;;;;19.20;12.80;;;;;;;;;;5032830;28;20430;-65
2022/01/18 07:45:30;;;;;;;22.07;13.30;;;;;;;;;;5032730;28;20489;-65
2022/01/18 07:47:56;;;;;;;20.00;12.67;;;;;;;;;;5032941;28;20410;-67
2022/01/18 07:50:22;;;;;;;25.83;13.20;;;;;;;;;;5032967;28;20443;-67
2022/01/18 07:52:48;;;;;;;16.93;10.77;;;;;;;;;;5032985;28;20755;-65
2022/01/18 07:55:15;;;;;;;18.67;11.37;;;;;;;;;;5034599;28;20450;-67
2022/01/18 07:57:42;;;;;;;16.63;10.07;;;;;;;;;;5041455;28;20412;-67
2022/01/18 08:00:10;;;;;;;14.87;10.80;;;;;;;;;;5041280;28;20418;-67
2022/01/18 08:02:37;;;;;;;17.13;11.20;;;;;;;;;;5033834;28;20427;-67
2022/01/18 08:05:04;;;;;;;17.67;9.80;;;;;;;;;;5031746;28;20497;-67
2022/01/18 08:07:30;;;;;;;16.27;11.53;;;;;;;;;;5032086;28;20919;-68
2022/01/18 08:09:56;;;;;;;12.43;8.63;;;;;;;;;;5031389;28;20403;-68
2022/01/18 08:12:23;;;;;;;17.80;9.23;;;;;;;;;;5030816;28;20419;-67
2022/01/18 08:14:50;;;;;;;16.33;10.03;;;;;;;;;;5024062;28;20446;-68
2022/01/18 08:17:17;;;;;;;15.73;9.23;;;;;;;;;;5025802;28;20489;-67
2022/01/18 08:19:43;;;;;;;17.03;10.40;;;;;;;;;;5021794;28;20485;-67
2022/01/18 08:22:09;;;;;;;14.43;9.47;;;;;;;;;;5032629;28;20550;-66
2022/01/18 08:24:36;;;;;;;17.57;9.77;;;;;;;;;;5029575;28;20465;-65
2022/01/18 08:27:03;;;;;;;17.30;9.10;;;;;;;;;;5033794;28;20521;-65
2022/01/18 08:29:29;;;;;;;15.50;10.50;;;;;;;;;;5033400;28;20415;-65
2022/01/18 08:31:55;;;;;;;13.90;10.47;;;;;;;;;;5029283;28;20430;-67
2022/01/18 08:34:21;;;;;;;15.87;10.83;;;;;;;;;;5029867;28;20921;-66
2022/01/18 08:36:50;;;;;;;14.17;10.00;;;;;;;;;;5030955;28;20468;-67
2022/01/18 08:39:16;;;;;;;18.30;10.33;;;;;;;;;;5032193;28;20426;-67
2022/01/18 08:41:42;;;;;;;12.47;9.10;;;;;;;;;;5028159;28;20420;-67
2022/01/18 08:44:08;;;;;;;21.17;12.40;;;;;;;;;;5029804;28;20524;-67
2022/01/18 08:46:34;;;;;;;19.33;11.30;;;;;;;;;;5030924;28;20419;-66
2022/01/18 08:49:00;;;;;;;13.20;9.10;;;;;;;;;;5033287;28;20814;-67
2022/01/18 08:51:26;;;;;;;20.50;9.90;;;;;;;;;;5031346;28;20422;-66
2022/01/18 08:53:52;;;;;;;14.67;9.53;;;;;;;;;;5032377;28;20426;-66
2022/01/18 08:56:19;;;;;;;13.77;9.00;;;;;;;;;;5032472;28;20488;-66
2022/01/18 08:58:46;;;;;;;17.77;9.77;;;;;;;;;;5032809;28;20998;-66
2022/01/18 09:01:12;;;;;;;15.40;9.00;;;;;;;;;;5029602;28;20462;-66
2022/01/18 09:03:38;;;;;;;12.93;9.23;;;;;;;;;;5031921;28;20426;-66
2022/01/18 09:06:06;;;;;;;25.40;11.40;;;;;;;;;;5030675;28;20399;-66
2022/01/18 09:08:33;;;;;;;26.97;12.70;;;;;;;;;;5032873;28;20469;-66
2022/01/18 09:10:59;;;;;;;20.77;13.37;;;;;;;;;;5031804;28;20501;-66
2022/01/18 09:13:25;;;;;;;14.50;10.60;;;;;;;;;;5031737;28;20413;-66
2022/01/18 09:15:51;;;;;;;13.60;8.87;;;;;;;;;;5032827;28;20775;-65
2022/01/18 09:18:18;;;;;;;14.50;10.13;;;;;;;;;;5034210;28;20497;-66
2022/01/18 09:20:44;;;;;;;15.87;9.60;;;;;;;;;;5031118;28;20403;-66
2022/01/18 09:23:11;;;;;;;13.63;9.20;;;;;;;;;;5031430;28;20777;-66
2022/01/18 09:25:37;;;;;;;17.47;9.53;;;;;;;;;;5031150;28;21096;-65
2022/01/18 09:28:03;;;;;;;12.33;8.50;;;;;;;;;;5039053;28;20414;-65
2022/01/18 09:30:30;;;;;;;16.10;8.60;;;;;;;;;;5032409;28;20419;-64
2022/01/18 09:32:57;;;;;;;16.63;9.10;;;;;;;;;;5030908;28;20414;-65
2022/01/18 09:35:23;;;;;;;11.60;7.50;;;;;;;;;;5033414;28;20568;-65
2022/01/18 09:37:49;;;;;;;10.43;7.57;;;;;;;;;;5032707;28;20407;-68
2022/01/18 09:40:19;;;;;;;18.70;8.70;;;;;;;;;;5046622;23;20486;-61
2022/01/18 09:42:46;;;;;;;12.90;6.47;;;;;;;;;;5029880;28;20887;-63
2022/01/18 09:45:14;;;;;;;9.80;6.80;;;;;;;;;;5028217;28;20500;-63
2022/01/18 09:47:42;;;;;;;12.43;7.33;;;;;;;;;;5032099;28;20421;-64
2022/01/18 09:50:09;;;;;;;13.13;7.17;;;;;;;;;;5028874;28;20423;-63
2022/01/18 09:52:36;;;;;;;10.97;5.83;;;;;;;;;;5032986;28;20795;-62
2022/01/18 09:55:02;;;;;;;12.10;6.70;;;;;;;;;;5029575;28;20750;-61
2022/01/18 09:57:30;;;;;;;17.30;7.30;;;;;;;;;;5030063;28;20866;-62
2022/01/18 09:59:56;;;;;;;11.33;7.40;;;;;;;;;;5026554;28;20779;-62
2022/01/18 10:02:22;;;;;;;11.93;8.53;;;;;;;;;;5029402;28;20473;-59
2022/01/18 10:04:51;;;;;;;13.50;8.47;;;;;;;;;;5022645;28;20988;-63
2022/01/18 10:07:18;;;;;;;14.43;8.33;;;;;;;;;;5028544;28;20891;-60
2022/01/18 10:09:44;;;;;;;15.80;7.80;;;;;;;;;;5029802;28;20966;-62
2022/01/18 10:12:14;;;;;;;13.03;8.70;;;;;;;;;;5029346;28;20419;-61
2022/01/18 10:14:40;;;;;;;13.60;7.97;;;;;;;;;;5028907;28;20770;-62
2022/01/18 10:17:07;;;;;;;12.20;8.53;;;;;;;;;;5031891;28;20434;-61
2022/01/18 10:19:50;;;;;;;19.63;9.33;;;;;;;;;;5029650;28;20435;-60
2022/01/18 10:22:20;;;;;;;16.07;9.27;;;;;;;;;;5043863;28;20429;-59
2022/01/18 10:24:47;;;;;;;14.87;9.83;;;;;;;;;;5032403;28;21026;-61
2022/01/18 10:27:13;;;;;;;13.60;9.43;;;;;;;;;;5023509;28;20728;-61
2022/01/18 10:29:41;;;;;;;21.77;10.43;;;;;;;;;;5025205;28;20529;-60
2022/01/18 10:32:36;;;;;;;12.83;7.43;;;;;;;;;;5025341;28;20434;-62
2022/01/18 10:37:21;;;;;;;14.13;8.10;;;;;;;;;;5030391;28;20903;-67
2022/01/18 10:39:48;;;;;;;11.77;8.57;;;;;;;;;;5026475;28;20869;-64
2022/01/18 10:42:17;;;;;;;12.67;7.77;;;;;;;;;;5028158;28;20415;-61
2022/01/18 10:44:45;;;;;;;18.50;9.03;;;;;;;;;;5031006;28;20458;-63
2022/01/18 10:47:12;;;;;;;14.67;7.20;;;;;;;;;;5026488;28;20430;-57
2022/01/18 10:49:45;;;;;;;12.47;8.10;;;;;;;;;;5030102;28;20422;-61
2022/01/18 10:52:12;;;;;;;10.93;6.40;;;;;;;;;;5043087;28;21025;-63
2022/01/18 10:54:40;;;;;;;13.90;7.10;;;;;;;;;;5029848;28;20502;-64
2022/01/18 10:57:07;;;;;;;13.17;6.17;;;;;;;;;;5026490;28;20418;-62
2022/01/18 10:59:33;;;;;;;8.00;5.20;;;;;;;;;;5028980;28;20446;-67
2022/01/18 11:02:09;;;;;;;13.13;5.40;;;;;;;;;;5025285;28;20431;-66
2022/01/18 11:04:36;;;;;;;9.83;5.20;;;;;;;;;;5028400;28;20516;-66
2022/01/18 11:07:03;;;;;;;10.43;5.70;;;;;;;;;;5025604;28;21017;-64
2022/01/18 11:09:30;;;;;;;10.27;5.45;;;;;;;;;;5022902;28;20419;-63
2022/01/18 11:11:56;;;;;;;13.70;5.97;;;;;;;;;;5028616;28;20175;-68
2022/01/18 11:14:23;;;;;;;8.40;4.33;;;;;;;;;;5033318;28;20426;-68
2022/01/18 11:16:50;;;;;;;13.13;6.90;;;;;;;;;;5032322;28;20490;-66
2022/01/18 11:21:50;;;;;;;10.90;4.73;;;;;;;;;;5025529;28;20426;-68
2022/01/18 11:24:17;;;;;;;7.20;4.40;;;;;;;;;;5030281;28;20512;-68
2022/01/18 11:26:44;;;;;;;8.97;4.47;;;;;;;;;;5027738;28;21143;-67
2022/01/18 11:29:11;;;;;;;11.00;4.73;;;;;;;;;;5029774;28;20419;-62
2022/01/18 11:31:38;;;;;;;7.80;5.27;;;;;;;;;;5029568;28;20966;-67
2022/01/18 11:34:06;;;;;;;6.33;4.10;;;;;;;;;;5025608;28;20415;-65
2022/01/18 11:36:37;;;;;;;7.23;4.07;;;;;;;;;;5028692;28;20422;-67
2022/01/18 11:39:05;;;;;;;14.70;4.67;;;;;;;;;;5028196;28;20434;-65
2022/01/18 11:41:34;;;;;;;10.33;5.13;;;;;;;;;;5031457;28;20462;-68
2022/01/18 11:44:11;;;;;;;11.53;4.40;;;;;;;;;;5027211;28;20946;-68
2022/01/18 11:46:40;;;;;;;9.20;4.40;;;;;;;;;;5023039;28;20954;-65
2022/01/18 11:49:17;;;;;;;11.57;4.50;;;;;;;;;;5021704;28;20420;-67
2022/01/18 11:51:52;;;;;;;8.63;3.83;;;;;;;;;;5022176;28;20457;-69
2022/01/18 11:54:34;;;;;;;6.40;4.10;;;;;;;;;;5028277;28;20411;-68
2022/01/18 11:57:01;;;;;;;9.33;3.97;;;;;;;;;;5029265;28;20926;-62
2022/01/18 11:59:28;;;;;;;8.13;4.57;;;;;;;;;;5027824;28;20423;-67
2022/01/18 12:01:55;;;;;;;9.40;4.67;;;;;;;;;;5029903;28;20511;-65
2022/01/18 12:07:31;;;;;;;9.87;5.03;;;;;;;;;;5030004;28;20439;-68
2022/01/18 12:09:58;;;;;;;6.73;3.90;;;;;;;;;;5032683;28;20942;-65
2022/01/18 12:12:44;;;;;;;15.23;4.70;;;;;;;;;;5029709;28;20452;-64
2022/01/18 12:15:16;;;;;;;4.83;3.33;;;;;;;;;;5027919;28;20442;-70
2022/01/18 12:17:48;;;;;;;10.07;4.40;;;;;;;;;;5027909;28;20419;-65
2022/01/18 12:20:33;;;;;;;9.80;4.20;;;;;;;;;;5032758;28;20446;-65
2022/01/18 12:23:04;;;;;;;8.40;4.90;;;;;;;;;;5030620;28;20556;-64
2022/01/18 12:25:34;;;;;;;6.10;4.13;;;;;;;;;;5033643;28;20533;-67
2022/01/18 12:28:21;;;;;;;8.63;4.20;;;;;;;;;;5029218;28;20427;-66
2022/01/18 12:31:05;;;;;;;4.57;3.80;;;;;;;;;;5027503;28;20469;-69
2022/01/18 12:33:42;;;;;;;8.47;3.53;;;;;;;;;;5029557;28;20421;-65
2022/01/18 12:36:27;;;;;;;8.17;4.23;;;;;;;;;;5026178;28;20489;-66
2022/01/18 12:38:57;;;;;;;8.10;4.10;;;;;;;;;;5029603;28;20415;-66
2022/01/18 12:41:45;;;;;;;6.23;3.97;;;;;;;;;;5029775;28;20454;-67
2022/01/18 12:44:21;;;;;;;7.80;3.70;;;;;;;;;;5028482;28;21072;-64
2022/01/18 12:46:59;;;;;;;8.97;4.57;;;;;;;;;;5032534;28;20910;-65
2022/01/18 12:49:27;;;;;;;6.67;3.80;;;;;;;;;;5032167;28;20913;-69
2022/01/18 12:51:57;;;;;;;12.93;5.83;;;;;;;;;;5029084;28;20458;-66
2022/01/18 12:54:36;;;;;;;7.33;4.13;;;;;;;;;;5025373;28;20430;-66
2022/01/18 12:57:14;;;;;;;10.23;5.00;;;;;;;;;;5029674;28;20445;-66
2022/01/18 12:59:59;;;;;;;8.50;4.57;;;;;;;;;;5027994;28;20410;-64
2022/01/18 13:02:25;;;;;;;16.33;4.80;;;;;;;;;;5032424;28;20426;-64
2022/01/18 13:05:01;;;;;;;13.97;4.77;;;;;;;;;;5048080;28;20490;-63
2022/01/18 13:07:27;;;;;;;13.73;4.90;;;;;;;;;;5029955;28;20427;-66
2022/01/18 13:09:57;;;;;;;17.13;5.83;;;;;;;;;;5030084;28;20441;-62
2022/01/18 13:12:37;;;;;;;9.67;5.23;;;;;;;;;;5032843;28;20509;-64
2022/01/18 13:15:05;;;;;;;9.87;4.27;;;;;;;;;;5030338;28;20406;-60
2022/01/18 13:23:18;;;;;;;6.83;4.27;;;;;;;;;;5028265;28;20434;-68
2022/01/18 13:25:54;;;;;;;9.37;4.10;;;;;;;;;;5029474;28;20450;-65
2022/01/18 13:28:31;;;;;;;11.20;4.70;;;;;;;;;;5027381;28;20953;-60
2022/01/18 13:31:12;;;;;;;15.90;5.63;;;;;;;;;;5028561;28;20458;-66
2022/01/18 13:34:11;;;;;;;9.43;5.03;;;;;;;;;;5028291;28;20460;-65
2022/01/18 13:36:50;;;;;;;10.07;4.03;;;;;;;;;;5008711;28;20511;-69
2022/01/18 13:39:26;;;;;;;9.10;3.90;;;;;;;;;;5027908;28;20438;-58
2022/01/18 13:41:52;;;;;;;9.30;4.23;;;;;;;;;;5031771;28;20442;-59
2022/01/18 13:44:19;;;;;;;10.50;4.87;;;;;;;;;;5030224;28;20594;-63
2022/01/18 13:46:45;;;;;;;8.40;3.87;;;;;;;;;;5034461;28;20455;-77
2022/01/18 13:49:11;;;;;;;12.05;4.18;;;;;;;;;;5032898;28;20858;-58
2022/01/18 13:51:38;;;;;;;10.88;4.00;;;;;;;;;;5030111;28;20413;-70
2022/01/18 13:54:07;;;;;;;10.73;4.47;;;;;;;;;;5032656;28;21434;-66
2022/01/18 13:56:33;;;;;;;11.40;4.50;;;;;;;;;;5031084;28;20422;-72
2022/01/18 13:59:01;;;;;;;7.07;3.90;;;;;;;;;;5033062;28;20465;-69
2022/01/18 14:01:28;;;;;;;10.10;3.50;;;;;;;;;;5033266;28;20447;-62
2022/01/18 14:03:55;;;;;;;18.13;3.60;;;;;;;;;;5026820;28;20454;-71
2022/01/18 14:06:32;;;;;;;8.37;4.00;;;;;;;;;;5029862;28;20483;-61
2022/01/18 14:08:58;;;;;;;7.60;3.77;;;;;;;;;;5032683;28;20410;-66
2022/01/18 14:11:25;;;;;;;11.07;3.63;;;;;;;;;;5030973;28;20525;-67
2022/01/18 14:13:52;;;;;;;9.47;3.37;;;;;;;;;;5032161;28;20761;-65
2022/01/18 14:16:21;;;;;;;5.53;2.90;;;;;;;;;;5031094;28;20419;-66
2022/01/18 14:18:51;;;;;;;8.10;2.90;;;;;;;;;;5031700;28;20458;-68
2022/01/18 14:21:27;;;;;;;7.45;3.20;;;;;;;;;;5032427;28;20436;-65
2022/01/18 14:24:12;;;;;;;7.67;2.90;;;;;;;;;;5023568;28;20261;-65
2022/01/18 14:26:41;;;;;;;10.53;3.47;;;;;;;;;;5031979;28;20913;-65
2022/01/18 14:29:07;;;;;;;6.77;3.00;;;;;;;;;;5026270;28;20469;-64
2022/01/18 14:31:33;;;;;;;15.07;2.80;;;;;;;;;;5025289;28;20966;-72
2022/01/18 14:33:59;;;;;;;10.67;3.43;;;;;;;;;;5021475;28;20434;-66
2022/01/18 14:36:26;;;;;;;22.63;5.47;;;;;;;;;;5029236;28;20422;-69
2022/01/18 14:39:08;;;;;;;7.40;2.50;;;;;;;;;;5029058;28;21033;-71
2022/01/18 14:41:35;;;;;;;7.00;2.80;;;;;;;;;;5029906;28;20810;-72
2022/01/18 14:44:12;;;;;;;8.20;2.50;;;;;;;;;;5029653;28;20450;-72
2022/01/18 14:46:58;;;;;;;8.13;2.83;;;;;;;;;;5028979;28;20460;-69
2022/01/18 14:49:24;;;;;;;6.22;2.92;;;;;;;;;;5029961;28;20413;-71
2022/01/18 14:51:50;;;;;;;8.60;2.80;;;;;;;;;;5028731;28;20422;-68
2022/01/18 14:54:16;;;;;;;8.52;2.90;;;;;;;;;;5022163;28;20520;-68
2022/01/18 14:56:42;;;;;;;10.07;3.10;;;;;;;;;;5024981;28;20208;-68
2022/01/18 14:59:08;;;;;;;6.03;2.70;;;;;;;;;;5024970;28;20431;-67
2022/01/18 15:01:36;;;;;;;8.10;2.97;;;;;;;;;;5030283;28;20433;-70
2022/01/18 15:04:02;;;;;;;6.53;3.43;;;;;;;;;;5026442;28;20455;-69
2022/01/18 15:06:28;;;;;;;8.80;2.90;;;;;;;;;;5026242;28;20411;-71
2022/01/18 15:08:54;;;;;;;6.85;3.15;;;;;;;;;;5028764;28;20804;-62
2022/01/18 15:11:20;;;;;;;7.53;2.97;;;;;;;;;;5028361;28;20279;-73
2022/01/18 15:13:46;;;;;;;7.60;3.80;;;;;;;;;;5025867;28;20427;-67
2022/01/18 15:16:13;;;;;;;7.83;3.37;;;;;;;;;;5025488;28;20446;-67
2022/01/18 15:18:39;;;;;;;7.67;3.50;;;;;;;;;;5023236;28;20464;-69
2022/01/18 15:21:05;;;;;;;11.13;3.80;;;;;;;;;;5026728;28;20433;-70
2022/01/18 15:23:31;;;;;;;9.17;3.70;;;;;;;;;;5033148;28;20422;-64
2022/01/18 15:25:57;;;;;;;7.83;3.93;;;;;;;;;;5030637;28;20524;-65
2022/01/18 15:28:23;;;;;;;7.60;4.03;;;;;;;;;;5029166;28;20426;-65
2022/01/18 15:30:49;;;;;;;5.07;3.30;;;;;;;;;;5030993;28;20461;-70
2022/01/18 15:33:15;;;;;;;11.87;3.73;;;;;;;;;;5027526;28;20923;-69
2022/01/18 15:35:41;;;;;;;7.65;3.20;;;;;;;;;;5032043;28;20425;-73
2022/01/18 15:38:07;;;;;;;6.47;3.23;;;;;;;;;;5032414;28;20183;-69
2022/01/18 15:40:35;;;;;;;11.13;4.33;;;;;;;;;;5030634;28;20461;-67
2022/01/18 15:43:01;;;;;;;9.43;3.90;;;;;;;;;;5031864;28;20915;-62
2022/01/18 15:45:27;;;;;;;7.30;3.47;;;;;;;;;;5033635;28;20294;-62
2022/01/18 15:47:53;;;;;;;11.23;3.70;;;;;;;;;;5026594;28;20419;-63
2022/01/18 15:50:19;;;;;;;6.17;3.37;;;;;;;;;;5032550;28;20431;-62
2022/01/18 15:52:46;;;;;;;6.07;3.87;;;;;;;;;;5026902;28;20434;-73
2022/01/18 15:55:12;;;;;;;7.90;4.03;;;;;;;;;;5029913;28;20431;-71
2022/01/18 15:57:38;;;;;;;11.63;4.63;;;;;;;;;;5027939;28;20921;-68